Time,TemperatureF,DewpointF,PressureIn,WindDirection,WindDirectionDegrees,WindSpeedMPH,WindSpeedGustMPH,Humidity,HourlyPrecipIn,Conditions,Clouds,dailyrainin,SoftwareType,DateUTC
2013-05-24 00:09:00,63.7,55.0,30.01,ENE,62,0.0,1.0,73,0.00,,,0.00,weatherlink.com 1.10,2013-05-24 04:09:00,
2013-05-24 00:24:00,62.7,55.0,30.01,ENE,62,0.0,0.0,76,0.00,,,0.00,weatherlink.com 1.10,2013-05-24 04:24:00,
2013-05-24 00:39:00,61.7,55.0,30.02,ENE,62,0.0,0.0,79,0.00,,,0.00,weatherlink.com 1.10,2013-05-24 04:39:00,
2013-05-24 00:54:00,60.9,55.0,30.02,ENE,62,0.0,1.0,81,0.00,,,0.00,weatherlink.com 1.10,2013-05-24 04:54:00,
2013-05-24 01:09:00,59.9,55.0,30.03,ENE,62,0.0,0.0,83,0.00,,,0.00,weatherlink.com 1.10,2013-05-24 05:09:00,
2013-05-24 01:24:00,59.0,55.0,30.04,ENE,62,0.0,0.0,86,0.00,,,0.00,weatherlink.com 1.10,2013-05-24 05:24:00,
2013-05-24 01:39:00,58.3,55.0,30.03,ENE,62,0.0,0.0,88,0.00,,,0.00,weatherlink.com 1.10,2013-05-24 05:39:00,
2013-05-24 01:54:00,57.6,54.0,30.02,ENE,62,0.0,0.0,89,0.00,,,0.00,weatherlink.com 1.10,2013-05-24 05:54:00,
2013-05-24 02:09:00,57.6,55.0,30.02,ENE,61,0.0,1.0,90,0.00,,,0.00,weatherlink.com 1.10,2013-05-24 06:09:00,
2013-05-24 02:24:00,57.9,55.0,30.02,ENE,61,0.0,1.0,89,0.00,,,0.00,weatherlink.com 1.10,2013-05-24 06:24:00,
2013-05-24 02:39:00,58.0,55.0,30.03,ENE,61,0.0,0.0,88,0.00,,,0.00,weatherlink.com 1.10,2013-05-24 06:39:00,
2013-05-24 02:54:00,57.8,55.0,30.03,WSW,255,0.0,0.0,89,0.00,,,0.00,weatherlink.com 1.10,2013-05-24 06:54:00,
2013-05-24 03:09:00,57.4,55.0,30.03,ENE,60,0.0,1.0,90,0.00,,,0.00,weatherlink.com 1.10,2013-05-24 07:09:00,
2013-05-24 03:24:00,57.9,55.0,30.03,West,277,0.0,1.0,89,0.00,,,0.00,weatherlink.com 1.10,2013-05-24 07:24:00,
2013-05-24 03:39:00,60.2,55.0,30.04,NE,49,2.0,3.0,82,0.00,,,0.00,weatherlink.com 1.10,2013-05-24 07:39:00,
2013-05-24 03:54:00,60.4,55.0,30.04,NNE,14,0.0,1.0,81,0.00,,,0.00,weatherlink.com 1.10,2013-05-24 07:54:00,
2013-05-24 04:09:00,60.4,55.0,30.05,NE,37,2.0,2.0,81,0.00,,,0.00,weatherlink.com 1.10,2013-05-24 08:09:00,
2013-05-24 04:24:00,61.2,55.0,30.04,SE,136,0.0,4.0,80,0.00,,,0.00,weatherlink.com 1.10,2013-05-24 08:24:00,
2013-05-24 04:39:00,60.7,55.0,30.05,East,99,0.0,1.0,81,0.00,,,0.00,weatherlink.com 1.10,2013-05-24 08:39:00,
2013-05-24 04:54:00,59.6,55.0,30.04,ESE,117,0.0,1.0,84,0.00,,,0.00,weatherlink.com 1.10,2013-05-24 08:54:00,
2013-05-24 05:09:00,59.1,55.0,30.05,NNW,342,0.0,1.0,85,0.00,,,0.00,weatherlink.com 1.10,2013-05-24 09:09:00,
2013-05-24 05:24:00,58.1,54.0,30.05,NNW,342,0.0,1.0,87,0.00,,,0.00,weatherlink.com 1.10,2013-05-24 09:24:00,
2013-05-24 05:39:00,57.5,55.0,30.05,NNW,342,0.0,1.0,90,0.00,,,0.00,weatherlink.com 1.10,2013-05-24 09:39:00,
2013-05-24 05:57:00,58.8,55.0,30.06,NNW,339,0.0,1.0,86,0.00,,,0.00,weatherlink.com 1.10,2013-05-24 09:57:00,
2013-05-24 06:10:00,59.1,55.0,30.05,East,92,0.0,1.0,85,0.00,,,0.00,weatherlink.com 1.10,2013-05-24 10:10:00,
2013-05-24 06:25:00,59.5,54.0,30.06,North,359,0.0,4.0,83,0.00,,,0.00,weatherlink.com 1.10,2013-05-24 10:25:00,
2013-05-24 06:40:00,59.3,54.0,30.07,NW,321,0.0,2.0,83,0.00,,,0.00,weatherlink.com 1.10,2013-05-24 10:40:00,
2013-05-24 06:55:00,59.3,54.0,30.08,SSE,151,0.0,5.0,82,0.00,,,0.00,weatherlink.com 1.10,2013-05-24 10:55:00,
2013-05-24 07:10:00,59.5,54.0,30.09,NW,313,1.0,4.0,81,0.00,,,0.00,weatherlink.com 1.10,2013-05-24 11:10:00,
2013-05-24 07:25:00,59.8,54.0,30.09,SE,139,0.0,5.0,81,0.00,,,0.00,weatherlink.com 1.10,2013-05-24 11:25:00,
2013-05-24 07:40:00,59.9,54.0,30.10,ESE,110,0.0,5.0,81,0.00,,,0.00,weatherlink.com 1.10,2013-05-24 11:40:00,
2013-05-24 07:55:00,60.3,54.0,30.12,East,84,0.0,4.0,80,0.00,,,0.00,weatherlink.com 1.10,2013-05-24 11:55:00,
2013-05-24 08:10:00,60.6,53.0,30.13,WNW,290,1.0,6.0,77,0.00,,,0.00,weatherlink.com 1.10,2013-05-24 12:10:00,
2013-05-24 08:25:00,61.2,53.0,30.14,SSW,207,0.0,10.0,74,0.00,,,0.00,weatherlink.com 1.10,2013-05-24 12:25:00,
2013-05-24 08:40:00,61.3,52.0,30.15,East,84,1.0,6.0,72,0.00,,,0.00,weatherlink.com 1.10,2013-05-24 12:40:00,
2013-05-24 08:55:00,62.2,52.0,30.15,East,97,1.0,7.0,70,0.00,,,0.00,weatherlink.com 1.10,2013-05-24 12:55:00,
2013-05-24 09:10:00,63.4,51.0,30.16,NNE,17,0.0,6.0,64,0.00,,,0.00,weatherlink.com 1.10,2013-05-24 13:10:00,
2013-05-24 09:25:00,64.1,51.0,30.17,ENE,60,4.0,9.0,63,0.00,,,0.00,weatherlink.com 1.10,2013-05-24 13:25:00,
2013-05-24 09:41:00,64.4,49.0,30.18,WSW,257,0.0,8.0,58,0.00,,,0.00,weatherlink.com 1.10,2013-05-24 13:41:00,
2013-05-24 09:55:00,65.2,49.0,30.19,ENE,66,2.0,4.0,56,0.00,,,0.00,weatherlink.com 1.10,2013-05-24 13:55:00,
2013-05-24 10:10:00,65.7,49.0,30.19,NE,49,0.0,6.0,56,0.00,,,0.00,weatherlink.com 1.10,2013-05-24 14:10:00,
2013-05-24 10:25:00,66.1,49.0,30.20,NW,318,0.0,11.0,54,0.00,,,0.00,weatherlink.com 1.10,2013-05-24 14:25:00,
2013-05-24 10:40:00,66.0,49.0,30.20,East,82,2.0,7.0,55,0.00,,,0.00,weatherlink.com 1.10,2013-05-24 14:40:00,
2013-05-24 10:55:00,66.2,49.0,30.20,SSE,150,0.0,4.0,54,0.00,,,0.00,weatherlink.com 1.10,2013-05-24 14:55:00,
2013-05-24 11:10:00,67.1,48.0,30.20,North,6,1.0,8.0,51,0.00,,,0.00,weatherlink.com 1.10,2013-05-24 15:10:00,
2013-05-24 11:25:00,67.0,48.0,30.21,North,1,1.0,7.0,51,0.00,,,0.00,weatherlink.com 1.10,2013-05-24 15:25:00,
2013-05-24 11:40:00,66.9,47.0,30.22,NNE,21,2.0,9.0,49,0.00,,,0.00,weatherlink.com 1.10,2013-05-24 15:40:00,
2013-05-24 11:55:00,68.0,49.0,30.21,SE,143,2.0,2.0,51,0.00,,,0.00,weatherlink.com 1.10,2013-05-24 15:55:00,
2013-05-24 12:10:00,67.7,48.0,30.22,West,276,0.0,4.0,49,0.00,,,0.00,weatherlink.com 1.10,2013-05-24 16:10:00,
2013-05-24 12:26:00,68.9,49.0,30.22,South,175,1.0,4.0,50,0.00,,,0.00,weatherlink.com 1.10,2013-05-24 16:26:00,
2013-05-24 12:41:00,68.4,47.0,30.22,ENE,60,3.0,8.0,47,0.00,,,0.00,weatherlink.com 1.10,2013-05-24 16:41:00,
2013-05-24 12:56:00,69.0,48.0,30.22,ESE,105,1.0,6.0,48,0.00,,,0.00,weatherlink.com 1.10,2013-05-24 16:56:00,
2013-05-24 13:11:00,69.0,47.0,30.22,North,11,2.0,5.0,45,0.00,,,0.00,weatherlink.com 1.10,2013-05-24 17:11:00,
2013-05-24 13:27:00,69.6,47.0,30.21,NNE,24,0.0,5.0,45,0.00,,,0.00,weatherlink.com 1.10,2013-05-24 17:27:00,
2013-05-24 13:41:00,70.5,48.0,30.21,NW,310,1.0,7.0,45,0.00,,,0.00,weatherlink.com 1.10,2013-05-24 17:41:00,
2013-05-24 13:56:00,70.7,48.0,30.21,NNE,27,1.0,5.0,45,0.00,,,0.00,weatherlink.com 1.10,2013-05-24 17:56:00,
2013-05-24 14:11:00,71.2,47.0,30.21,NNE,27,3.0,6.0,43,0.00,,,0.00,weatherlink.com 1.10,2013-05-24 18:11:00,
2013-05-24 14:26:00,71.3,46.0,30.21,NNW,337,2.0,8.0,41,0.00,,,0.00,weatherlink.com 1.10,2013-05-24 18:26:00,
2013-05-24 14:56:00,72.8,47.0,30.21,WNW,286,0.0,4.0,40,0.00,,,0.00,weatherlink.com 1.10,2013-05-24 18:56:00,
2013-05-24 15:11:00,73.2,47.0,30.21,ESE,107,1.0,6.0,39,0.00,,,0.00,weatherlink.com 1.10,2013-05-24 19:11:00,
2013-05-24 15:26:00,72.9,44.0,30.21,WNW,294,2.0,8.0,36,0.00,,,0.00,weatherlink.com 1.10,2013-05-24 19:26:00,
2013-05-24 15:41:00,72.7,47.0,30.21,WNW,291,0.0,4.0,40,0.00,,,0.00,weatherlink.com 1.10,2013-05-24 19:41:00,
2013-05-24 15:56:00,72.7,47.0,30.20,West,274,1.0,6.0,40,0.00,,,0.00,weatherlink.com 1.10,2013-05-24 19:56:00,
2013-05-24 16:11:00,73.2,45.0,30.20,West,269,1.0,5.0,37,0.00,,,0.00,weatherlink.com 1.10,2013-05-24 20:11:00,
2013-05-24 16:26:00,73.5,47.0,30.20,WNW,303,1.0,8.0,39,0.00,,,0.00,weatherlink.com 1.10,2013-05-24 20:26:00,
2013-05-24 16:41:00,73.3,47.0,30.20,NNW,345,1.0,3.0,39,0.00,,,0.00,weatherlink.com 1.10,2013-05-24 20:41:00,
2013-05-24 16:56:00,73.6,47.0,30.20,NW,319,1.0,4.0,39,0.00,,,0.00,weatherlink.com 1.10,2013-05-24 20:56:00,
2013-05-24 17:11:00,73.2,47.0,30.20,ENE,70,2.0,5.0,39,0.00,,,0.00,weatherlink.com 1.10,2013-05-24 21:11:00,
2013-05-24 17:26:00,73.7,45.0,30.20,NW,319,1.0,3.0,36,0.00,,,0.00,weatherlink.com 1.10,2013-05-24 21:26:00,
2013-05-24 17:41:00,73.7,42.0,30.20,SE,129,1.0,8.0,32,0.00,,,0.00,weatherlink.com 1.10,2013-05-24 21:41:00,
2013-05-24 17:56:00,73.4,41.0,30.20,ENE,65,2.0,5.0,31,0.00,,,0.00,weatherlink.com 1.10,2013-05-24 21:56:00,
2013-05-24 18:11:00,71.7,42.0,30.20,NW,307,1.0,6.0,34,0.00,,,0.00,weatherlink.com 1.10,2013-05-24 22:11:00,
2013-05-24 18:26:00,70.9,41.0,30.20,ENE,76,2.0,5.0,34,0.00,,,0.00,weatherlink.com 1.10,2013-05-24 22:26:00,
2013-05-24 18:41:00,70.5,43.0,30.20,NNE,22,4.0,4.0,37,0.00,,,0.00,weatherlink.com 1.10,2013-05-24 22:41:00,
2013-05-24 18:56:00,70.1,43.0,30.20,SE,127,0.0,4.0,38,0.00,,,0.00,weatherlink.com 1.10,2013-05-24 22:56:00,
2013-05-24 19:11:00,69.4,46.0,30.19,East,82,3.0,5.0,43,0.00,,,0.00,weatherlink.com 1.10,2013-05-24 23:11:00,
2013-05-24 19:26:00,69.0,47.0,30.20,NE,46,0.0,4.0,45,0.00,,,0.00,weatherlink.com 1.10,2013-05-24 23:26:00,
2013-05-24 19:41:00,68.1,48.0,30.20,ESE,106,0.0,1.0,48,0.00,,,0.00,weatherlink.com 1.10,2013-05-24 23:41:00,
2013-05-24 19:56:00,67.5,48.0,30.21,NE,39,0.0,2.0,49,0.00,,,0.00,weatherlink.com 1.10,2013-05-24 23:56:00,
2013-05-24 20:11:00,65.7,47.0,30.21,NE,39,0.0,0.0,51,0.00,,,0.00,weatherlink.com 1.10,2013-05-25 00:11:00,
2013-05-24 20:26:00,64.0,48.0,30.21,NE,41,0.0,1.0,57,0.00,,,0.00,weatherlink.com 1.10,2013-05-25 00:26:00,
2013-05-24 20:41:00,62.5,48.0,30.21,NE,43,0.0,0.0,59,0.00,,,0.00,weatherlink.com 1.10,2013-05-25 00:41:00,
2013-05-24 20:56:00,61.3,48.0,30.21,NE,44,0.0,0.0,61,0.00,,,0.00,weatherlink.com 1.10,2013-05-25 00:56:00,
2013-05-24 21:11:00,59.8,48.0,30.21,NE,44,0.0,0.0,65,0.00,,,0.00,weatherlink.com 1.10,2013-05-25 01:11:00,
2013-05-24 21:26:00,58.9,48.0,30.21,NE,43,0.0,1.0,68,0.00,,,0.00,weatherlink.com 1.10,2013-05-25 01:26:00,
2013-05-24 21:41:00,57.9,49.0,30.22,NE,43,0.0,1.0,72,0.00,,,0.00,weatherlink.com 1.10,2013-05-25 01:41:00,
2013-05-24 21:56:00,57.1,49.0,30.23,NE,43,0.0,0.0,74,0.00,,,0.00,weatherlink.com 1.10,2013-05-25 01:56:00,
2013-05-24 22:11:00,56.5,49.0,30.23,NE,43,0.0,0.0,76,0.00,,,0.00,weatherlink.com 1.10,2013-05-25 02:11:00,
2013-05-24 22:26:00,55.6,49.0,30.22,NE,43,0.0,0.0,77,0.00,,,0.00,weatherlink.com 1.10,2013-05-25 02:26:00,
2013-05-24 22:41:00,54.8,49.0,30.23,NE,43,0.0,0.0,80,0.00,,,0.00,weatherlink.com 1.10,2013-05-25 02:41:00,
2013-05-24 22:56:00,54.4,47.0,30.23,NE,43,0.0,0.0,77,0.00,,,0.00,weatherlink.com 1.10,2013-05-25 02:56:00,
2013-05-24 23:12:00,54.0,48.0,30.24,NE,43,0.0,1.0,80,0.00,,,0.00,weatherlink.com 1.10,2013-05-25 03:12:00,
2013-05-24 23:27:00,53.4,47.0,30.24,NE,43,0.0,0.0,80,0.00,,,0.00,weatherlink.com 1.10,2013-05-25 03:27:00,
2013-05-24 23:42:00,53.1,47.0,30.25,NE,43,0.0,0.0,80,0.00,,,0.00,weatherlink.com 1.10,2013-05-25 03:42:00,
2013-05-24 23:57:00,52.4,47.0,30.25,NE,43,0.0,0.0,82,0.00,,,0.00,weatherlink.com 1.10,2013-05-25 03:57:00,